createdAt,value
2022-10-22T00:00:39.506Z,2.55
2022-10-22T00:03:06.679Z,1.83
2022-10-22T00:05:33.863Z,3.80
2022-10-22T00:08:00.959Z,3.97
2022-10-22T00:10:28.202Z,4.45
2022-10-22T00:12:55.416Z,2.63
2022-10-22T00:15:22.575Z,3.13
2022-10-22T00:17:49.786Z,2.63
2022-10-22T00:20:17.332Z,3.70
2022-10-22T00:22:44.484Z,6.68
2022-10-22T00:25:11.643Z,3.17
2022-10-22T00:27:39.012Z,4.03
2022-10-22T00:30:06.629Z,4.80
2022-10-22T00:32:33.797Z,12.00
2022-10-22T00:35:00.976Z,4.80
2022-10-22T00:37:28.096Z,5.88
2022-10-22T00:39:55.150Z,6.45
2022-10-22T00:42:23.536Z,2.38
2022-10-22T00:45:05.845Z,5.63
2022-10-22T00:47:51.532Z,3.33
2022-10-22T00:50:20.760Z,3.88
2022-10-22T00:52:50.074Z,4.43
2022-10-22T00:55:17.972Z,2.90
2022-10-22T00:57:45.179Z,3.08
2022-10-22T01:00:12.557Z,4.05
2022-10-22T01:02:39.816Z,4.85
2022-10-22T01:05:07.427Z,3.05
2022-10-22T01:07:38.269Z,3.00
2022-10-22T01:10:23.906Z,3.42
2022-10-22T01:12:50.976Z,2.67
2022-10-22T01:15:18.036Z,8.60
2022-10-22T01:17:52.870Z,3.72
2022-10-22T01:20:25.739Z,6.72
2022-10-22T01:22:52.808Z,4.28
2022-10-22T01:25:25.554Z,6.30
2022-10-22T01:30:19.950Z,4.85
2022-10-22T01:32:50.244Z,2.83
2022-10-22T01:35:19.930Z,5.05
2022-10-22T01:37:50.180Z,3.47
2022-10-22T01:40:17.937Z,3.90
2022-10-22T01:42:54.735Z,2.22
2022-10-22T01:45:21.907Z,4.07
2022-10-22T01:47:49.025Z,6.03
2022-10-22T01:50:32.966Z,6.20
2022-10-22T01:53:03.159Z,4.88
2022-10-22T01:55:30.256Z,7.50
2022-10-22T01:58:15.890Z,4.05
2022-10-22T02:00:46.877Z,5.38
2022-10-22T02:03:23.675Z,6.13
2022-10-22T02:05:54.227Z,4.63
2022-10-22T02:08:24.237Z,8.43
2022-10-22T02:10:51.674Z,4.18
2022-10-22T02:13:42.263Z,6.90
2022-10-22T02:16:11.591Z,3.25
2022-10-22T02:18:40.738Z,5.78
2022-10-22T02:23:40.202Z,7.32
2022-10-22T02:26:33.599Z,4.20
2022-10-22T02:29:07.481Z,9.65
2022-10-22T02:31:37.511Z,3.53
2022-10-22T02:34:10.100Z,4.88
2022-10-22T02:36:38.336Z,11.18
2022-10-22T02:39:06.604Z,2.08
2022-10-22T02:41:33.841Z,2.58
2022-10-22T02:44:02.722Z,3.80
2022-10-22T02:46:29.869Z,1.80
2022-10-22T02:48:56.928Z,4.63
2022-10-22T02:51:24.014Z,3.15
2022-10-22T02:53:51.090Z,2.50
2022-10-22T02:56:18.365Z,3.03
2022-10-22T02:58:45.451Z,5.22
2022-10-22T03:01:15.317Z,7.68
2022-10-22T03:03:43.359Z,2.08
2022-10-22T03:06:10.473Z,1.95
2022-10-22T03:08:37.674Z,2.10
2022-10-22T03:11:04.830Z,2.97
2022-10-22T03:13:31.912Z,2.03
2022-10-22T03:15:59.052Z,2.50
2022-10-22T03:18:26.127Z,1.73
2022-10-22T03:21:02.538Z,3.67
2022-10-22T03:23:29.618Z,4.00
2022-10-22T03:25:56.820Z,2.83
2022-10-22T03:28:23.979Z,7.10
2022-10-22T03:30:51.094Z,1.65
2022-10-22T03:33:18.183Z,1.60
2022-10-22T03:35:47.334Z,3.28
2022-10-22T03:38:15.034Z,3.92
2022-10-22T03:40:43.303Z,3.00
2022-10-22T03:43:10.501Z,3.78
2022-10-22T03:48:05.952Z,2.47
2022-10-22T03:50:33.039Z,4.63
2022-10-22T03:53:00.197Z,3.17
2022-10-22T03:55:27.356Z,3.00
2022-10-22T03:57:54.539Z,1.90
2022-10-22T04:00:21.710Z,2.35
2022-10-22T04:02:48.843Z,7.07
2022-10-22T04:05:15.979Z,2.70
2022-10-22T04:07:43.325Z,2.60
2022-10-22T04:10:10.582Z,2.08
2022-10-22T04:12:37.661Z,5.00
2022-10-22T04:15:05.351Z,3.08
2022-10-22T04:17:35.816Z,1.65
2022-10-22T04:20:03.518Z,1.10
2022-10-22T04:22:30.753Z,2.83
2022-10-22T04:24:57.829Z,1.60
2022-10-22T04:27:24.902Z,2.38
2022-10-22T04:29:52.828Z,3.53
2022-10-22T04:32:19.907Z,3.72
2022-10-22T04:34:46.996Z,3.58
2022-10-22T04:37:14.067Z,1.33
2022-10-22T04:39:41.156Z,1.92
2022-10-22T04:42:08.274Z,0.98
2022-10-22T04:44:35.446Z,0.70
2022-10-22T04:47:02.535Z,6.25
2022-10-22T04:49:29.608Z,1.48
2022-10-22T04:51:56.750Z,3.53
2022-10-22T04:54:25.763Z,1.58
2022-10-22T04:56:54.784Z,0.75
2022-10-22T04:59:21.873Z,0.88
2022-10-22T05:01:48.973Z,6.00
2022-10-22T05:04:17.388Z,3.13
2022-10-22T05:06:44.786Z,2.25
2022-10-22T05:09:13.731Z,0.93
2022-10-22T05:11:41.900Z,0.88
2022-10-22T05:14:10.049Z,1.42
2022-10-22T05:16:38.168Z,2.25
2022-10-22T05:19:05.688Z,2.25
2022-10-22T05:21:32.786Z,3.50
2022-10-22T05:24:00.159Z,1.65
2022-10-22T05:26:27.655Z,4.97
2022-10-22T05:28:54.754Z,2.90
2022-10-22T05:31:21.910Z,0.98
2022-10-22T05:33:49.099Z,2.95
2022-10-22T05:36:17.859Z,2.13
2022-10-22T05:38:45.223Z,3.92
2022-10-22T05:41:13.892Z,2.20
2022-10-22T05:43:41.083Z,2.75
2022-10-22T05:46:09.730Z,3.40
2022-10-22T05:48:36.996Z,2.17
2022-10-22T05:51:08.608Z,3.67
2022-10-22T05:53:36.690Z,1.92
2022-10-22T05:56:04.733Z,1.83
2022-10-22T05:58:31.877Z,4.88
2022-10-22T06:01:02.648Z,2.05
2022-10-22T06:03:29.781Z,3.53
2022-10-22T06:05:56.861Z,3.38
2022-10-22T06:08:23.940Z,6.05
2022-10-22T06:10:51.062Z,3.50
2022-10-22T06:13:18.145Z,6.15
2022-10-22T06:15:45.232Z,6.47
2022-10-22T06:18:12.538Z,2.13
2022-10-22T06:20:39.679Z,4.38
2022-10-22T06:23:06.770Z,4.15
2022-10-22T06:25:33.838Z,10.07
2022-10-22T06:28:00.986Z,2.55
2022-10-22T06:30:28.100Z,4.25
2022-10-22T06:32:55.240Z,2.47
2022-10-22T06:35:22.308Z,2.75
2022-10-22T06:37:49.431Z,8.32
2022-10-22T06:40:18.637Z,2.55
2022-10-22T06:42:45.832Z,0.88
2022-10-22T06:45:12.931Z,1.88
2022-10-22T06:47:40.251Z,2.60
2022-10-22T06:50:07.842Z,2.47
2022-10-22T06:52:34.940Z,0.80
2022-10-22T06:55:02.231Z,1.77
2022-10-22T06:57:30.530Z,1.35
2022-10-22T06:59:57.610Z,0.98
2022-10-22T07:02:24.745Z,0.82
2022-10-22T07:04:51.842Z,1.95
2022-10-22T07:07:18.958Z,1.42
2022-10-22T07:09:47.342Z,2.20
2022-10-22T07:12:14.496Z,1.20
2022-10-22T07:14:41.631Z,0.70
2022-10-22T07:17:08.706Z,3.08
2022-10-22T07:19:36.047Z,2.45
2022-10-22T07:22:03.199Z,2.60
2022-10-22T07:24:30.344Z,2.05
2022-10-22T07:26:57.687Z,1.15
2022-10-22T07:29:24.803Z,1.40
2022-10-22T07:31:51.922Z,1.58
2022-10-22T07:36:51.037Z,1.98
2022-10-22T07:39:18.198Z,1.83
2022-10-22T07:41:45.306Z,2.85
2022-10-22T07:44:12.372Z,1.83
2022-10-22T07:46:39.534Z,1.83
2022-10-22T07:49:06.586Z,3.45
2022-10-22T07:51:33.663Z,1.83
2022-10-22T07:54:00.781Z,3.83
2022-10-22T07:56:27.851Z,1.42
2022-10-22T07:58:54.981Z,2.72
2022-10-22T08:01:22.207Z,1.38
2022-10-22T08:03:49.292Z,5.85
2022-10-22T08:06:17.651Z,2.17
2022-10-22T08:08:46.319Z,1.40
2022-10-22T08:11:13.670Z,2.25
2022-10-22T08:13:45.089Z,0.60
2022-10-22T08:16:12.811Z,1.00
2022-10-22T08:18:40.050Z,4.38
2022-10-22T08:21:07.294Z,3.30
2022-10-22T08:23:34.454Z,1.10
2022-10-22T08:26:02.953Z,2.28
2022-10-22T08:28:31.217Z,1.15
2022-10-22T08:30:58.347Z,0.98
2022-10-22T08:33:25.412Z,1.70
2022-10-22T08:35:52.765Z,2.40
2022-10-22T08:38:20.345Z,1.33
2022-10-22T08:40:52.590Z,2.17
2022-10-22T08:43:38.507Z,2.03
2022-10-22T08:46:17.764Z,1.95
2022-10-22T08:48:52.859Z,1.63
2022-10-22T08:51:22.115Z,0.90
2022-10-22T08:53:49.156Z,6.68
2022-10-22T08:56:16.295Z,1.80
2022-10-22T08:59:02.094Z,3.53
2022-10-22T09:01:29.155Z,5.45
2022-10-22T09:04:05.273Z,2.97
2022-10-22T09:06:33.449Z,2.20
2022-10-22T09:09:01.859Z,0.98
2022-10-22T09:11:33.887Z,5.68
2022-10-22T09:14:01.440Z,2.63
2022-10-22T09:16:37.437Z,2.47
2022-10-22T09:19:04.858Z,1.55
2022-10-22T09:21:32.019Z,1.52
2022-10-22T09:24:04.653Z,1.38
2022-10-22T09:26:35.423Z,2.53
2022-10-22T09:29:02.676Z,1.90
2022-10-22T09:31:31.226Z,1.73
2022-10-22T09:33:59.492Z,1.60
2022-10-22T09:36:29.686Z,1.50
2022-10-22T09:38:57.268Z,3.60
2022-10-22T09:41:26.687Z,3.65
2022-10-22T09:43:53.848Z,6.03
2022-10-22T09:46:24.725Z,2.50
2022-10-22T09:48:59.183Z,0.93
2022-10-22T09:51:36.806Z,1.88
2022-10-22T09:54:13.417Z,2.17
2022-10-22T09:56:42.063Z,2.30
2022-10-22T09:59:19.267Z,5.80
2022-10-22T10:01:46.374Z,0.77
2022-10-22T10:04:15.026Z,1.02
2022-10-22T10:06:43.499Z,1.17
2022-10-22T10:09:18.498Z,4.28
2022-10-22T10:11:57.598Z,2.22
2022-10-22T10:14:32.906Z,3.33
2022-10-22T10:17:02.720Z,1.00
2022-10-22T10:19:38.859Z,4.43
2022-10-22T10:22:10.952Z,1.17
2022-10-22T10:24:44.128Z,2.40
2022-10-22T10:27:19.365Z,2.90
2022-10-22T10:29:54.193Z,5.47
2022-10-22T10:32:30.114Z,1.10
2022-10-22T10:35:00.003Z,1.40
2022-10-22T10:37:28.805Z,0.73
2022-10-22T10:40:03.910Z,1.23
2022-10-22T10:42:40.264Z,2.40
2022-10-22T10:45:17.762Z,1.65
2022-10-22T10:47:53.477Z,2.85
2022-10-22T10:50:20.598Z,1.65
2022-10-22T10:52:57.419Z,5.07
2022-10-22T10:55:27.524Z,3.70
2022-10-22T10:58:29.943Z,2.35
2022-10-22T11:00:58.966Z,2.75
2022-10-22T11:03:44.575Z,1.52
2022-10-22T11:06:23.015Z,2.75
2022-10-22T11:09:21.978Z,3.45
2022-10-22T11:11:51.102Z,1.02
2022-10-22T11:14:39.113Z,1.35
2022-10-22T11:17:11.203Z,2.38
2022-10-22T11:20:04.475Z,1.02
2022-10-22T11:25:13.871Z,2.45
2022-10-22T11:27:51.128Z,2.22
2022-10-22T11:30:20.460Z,1.35
2022-10-22T11:32:58.345Z,1.83
2022-10-22T11:35:27.718Z,1.25
2022-10-22T11:37:58.475Z,1.58
2022-10-22T11:40:38.974Z,3.53
2022-10-22T11:43:06.079Z,2.50
2022-10-22T11:45:38.051Z,1.55
2022-10-22T11:48:08.195Z,2.47
2022-10-22T11:50:47.388Z,3.63
2022-10-22T11:53:14.465Z,2.40
2022-10-22T11:55:51.312Z,3.28
2022-10-22T11:58:32.590Z,9.10
2022-10-22T12:01:02.412Z,2.35
2022-10-22T12:03:29.495Z,6.47
2022-10-22T12:06:05.740Z,2.15
2022-10-22T12:08:33.980Z,2.22
2022-10-22T12:11:05.031Z,1.88
2022-10-22T12:13:53.967Z,0.98
2022-10-22T12:16:32.410Z,2.63
2022-10-22T12:19:11.692Z,4.10
2022-10-22T12:21:39.683Z,2.30
2022-10-22T12:24:07.302Z,1.33
2022-10-22T12:26:34.898Z,5.07
2022-10-22T12:29:07.719Z,2.15
2022-10-22T12:34:01.767Z,1.15
2022-10-22T12:36:30.126Z,2.50
2022-10-22T12:39:00.826Z,1.50
2022-10-22T12:41:31.421Z,8.05
2022-10-22T12:44:01.911Z,6.90
2022-10-22T12:46:30.606Z,3.67
2022-10-22T12:49:00.363Z,8.70
2022-10-22T12:51:33.582Z,1.02
2022-10-22T12:54:04.283Z,1.92
2022-10-22T12:56:33.215Z,5.72
2022-10-22T12:59:20.574Z,6.03
2022-10-22T13:01:49.222Z,1.83
2022-10-22T13:04:31.699Z,2.28
2022-10-22T13:07:17.113Z,1.10
2022-10-22T13:10:13.013Z,2.65
2022-10-22T13:15:35.853Z,1.98
2022-10-22T13:18:04.310Z,2.03
2022-10-22T13:20:31.415Z,12.00
2022-10-22T13:23:01.009Z,5.95
2022-10-22T13:25:29.694Z,1.73
2022-10-22T13:27:58.490Z,2.25
2022-10-22T13:30:26.666Z,2.15
2022-10-22T13:32:58.146Z,1.60
2022-10-22T13:35:27.686Z,1.77
2022-10-22T13:37:54.891Z,4.63
2022-10-22T13:40:22.447Z,1.98
2022-10-22T13:42:49.764Z,2.63
2022-10-22T13:45:17.316Z,1.23
2022-10-22T13:47:47.379Z,2.67
2022-10-22T13:50:16.611Z,1.65
2022-10-22T13:52:48.582Z,2.17
2022-10-22T13:55:17.099Z,12.85
2022-10-22T13:57:44.382Z,2.60
2022-10-22T14:00:12.987Z,3.22
2022-10-22T14:02:40.989Z,3.38
2022-10-22T14:05:09.564Z,1.13
2022-10-22T14:07:37.163Z,3.63
2022-10-22T14:10:07.146Z,1.58
2022-10-22T14:12:34.257Z,3.35
2022-10-22T14:15:01.384Z,3.17
2022-10-22T14:17:28.719Z,1.52
2022-10-22T14:19:55.783Z,1.10
2022-10-22T14:22:24.670Z,4.05
2022-10-22T14:24:51.973Z,3.25
2022-10-22T14:27:19.115Z,10.80
2022-10-22T14:29:46.222Z,2.55
2022-10-22T14:32:14.772Z,3.28
2022-10-22T14:34:42.510Z,2.80
2022-10-22T14:37:15.626Z,2.03
2022-10-22T14:39:43.126Z,3.22
2022-10-22T14:42:11.841Z,3.05
2022-10-22T14:44:38.954Z,3.10
2022-10-22T14:47:06.076Z,2.28
2022-10-22T14:49:33.226Z,3.78
2022-10-22T14:52:00.334Z,5.40
2022-10-22T14:54:27.411Z,4.70
2022-10-22T14:56:54.547Z,3.17
2022-10-22T14:59:21.706Z,3.58
2022-10-22T15:01:48.765Z,2.03
2022-10-22T15:04:15.818Z,2.20
2022-10-22T15:06:42.937Z,2.60
2022-10-22T15:09:10.091Z,4.13
2022-10-22T15:11:37.336Z,3.30
2022-10-22T15:14:04.419Z,1.42
2022-10-22T15:16:31.555Z,6.90
2022-10-22T15:18:59.759Z,1.52
2022-10-22T15:21:26.898Z,7.60
2022-10-22T15:23:53.963Z,3.85
2022-10-22T15:26:21.070Z,2.35
2022-10-22T15:28:48.122Z,3.65
2022-10-22T15:31:15.765Z,3.50
2022-10-22T15:33:43.708Z,2.20
2022-10-22T15:36:12.597Z,5.75
2022-10-22T15:38:39.795Z,2.45
2022-10-22T15:41:07.994Z,3.30
2022-10-22T15:43:35.483Z,3.80
2022-10-22T15:46:10.482Z,2.35
2022-10-22T15:48:37.594Z,4.05
2022-10-22T15:51:15.271Z,1.95
2022-10-22T15:53:42.618Z,2.42
2022-10-22T15:56:11.732Z,3.78
2022-10-22T15:58:38.840Z,8.23
2022-10-22T16:01:10.237Z,4.75
2022-10-22T16:03:37.743Z,2.95
2022-10-22T16:06:05.404Z,1.67
2022-10-22T16:08:32.540Z,3.13
2022-10-22T16:10:59.755Z,2.88
2022-10-22T16:13:26.837Z,2.72
2022-10-22T16:15:54.175Z,5.32
2022-10-22T16:18:21.630Z,5.45
2022-10-22T16:20:48.758Z,7.13
2022-10-22T16:23:18.706Z,4.25
2022-10-22T16:25:46.617Z,2.13
2022-10-22T16:28:14.134Z,4.93
2022-10-22T16:30:41.679Z,4.90
2022-10-22T16:33:09.636Z,9.70
2022-10-22T16:35:40.569Z,11.52
2022-10-22T16:38:07.718Z,9.68
2022-10-22T16:40:35.003Z,11.55
2022-10-22T16:43:02.236Z,8.50
2022-10-22T16:45:29.338Z,8.52
2022-10-22T16:47:56.583Z,8.45
2022-10-22T16:50:23.686Z,8.85
2022-10-22T16:52:50.754Z,8.70
2022-10-22T16:55:18.030Z,9.65
2022-10-22T16:57:50.558Z,8.18
2022-10-22T17:00:17.759Z,8.40
2022-10-22T17:02:44.886Z,7.20
2022-10-22T17:05:11.967Z,10.50
2022-10-22T17:07:39.054Z,5.00
2022-10-22T17:10:08.964Z,10.43
2022-10-22T17:12:36.839Z,8.38
2022-10-22T17:15:05.370Z,8.50
2022-10-22T17:17:32.868Z,7.07
2022-10-22T17:20:00.282Z,6.18
2022-10-22T17:22:27.466Z,6.55
2022-10-22T17:25:13.421Z,11.63
2022-10-22T17:27:41.024Z,6.07
2022-10-22T17:30:08.699Z,10.02
2022-10-22T17:32:39.427Z,8.45
2022-10-22T17:35:07.310Z,9.52
2022-10-22T17:37:34.493Z,7.05
2022-10-22T17:40:01.853Z,8.65
2022-10-22T17:42:29.076Z,15.25
2022-10-22T17:44:56.199Z,12.13
2022-10-22T17:47:23.371Z,9.60
2022-10-22T17:49:50.525Z,14.57
2022-10-22T17:52:17.827Z,19.13
2022-10-22T17:54:45.095Z,23.40
2022-10-22T17:57:13.680Z,31.48
2022-10-22T17:59:40.826Z,27.40
2022-10-22T18:02:08.287Z,27.27
2022-10-22T18:04:35.450Z,22.45
2022-10-22T18:07:02.551Z,26.13
2022-10-22T18:09:29.651Z,18.58
2022-10-22T18:11:56.770Z,16.08
2022-10-22T18:14:24.280Z,13.95
2022-10-22T18:16:51.714Z,15.13
2022-10-22T18:19:20.213Z,10.18
2022-10-22T18:21:47.329Z,17.45
2022-10-22T18:24:15.258Z,22.38
2022-10-22T18:26:42.775Z,23.20
2022-10-22T18:29:10.973Z,20.15
2022-10-22T18:31:38.048Z,18.05
2022-10-22T18:34:05.149Z,18.58
2022-10-22T18:36:32.242Z,18.20
2022-10-22T18:39:00.948Z,18.00
2022-10-22T18:41:29.076Z,16.73
2022-10-22T18:43:57.534Z,20.27
2022-10-22T18:46:25.003Z,17.00
2022-10-22T18:48:56.182Z,16.23
2022-10-22T18:51:24.139Z,21.75
2022-10-22T18:54:04.622Z,13.23
2022-10-22T18:56:32.727Z,12.13
2022-10-22T18:58:59.834Z,11.27
2022-10-22T19:01:30.379Z,16.40
2022-10-22T19:03:57.718Z,10.40
2022-10-22T19:06:27.082Z,16.13
2022-10-22T19:08:54.189Z,8.25
2022-10-22T19:11:21.711Z,10.95
2022-10-22T19:13:48.787Z,10.15
2022-10-22T19:16:23.507Z,7.28
2022-10-22T19:18:51.645Z,8.27
2022-10-22T19:21:19.079Z,10.73
2022-10-22T19:26:21.399Z,10.43
2022-10-22T19:28:48.512Z,11.93
2022-10-22T19:31:18.136Z,10.43
2022-10-22T19:33:45.223Z,12.32
2022-10-22T19:36:13.026Z,9.90
2022-10-22T19:38:41.142Z,7.38
2022-10-22T19:41:08.799Z,6.68
2022-10-22T19:43:35.873Z,8.77
2022-10-22T19:46:05.836Z,9.63
2022-10-22T19:48:33.382Z,15.80
2022-10-22T19:51:04.819Z,11.57
2022-10-22T19:53:32.178Z,12.88
2022-10-22T19:55:59.715Z,10.13
2022-10-22T19:58:27.728Z,10.05
2022-10-22T20:00:55.073Z,9.75
2022-10-22T20:03:23.099Z,12.40
2022-10-22T20:05:53.231Z,13.48
2022-10-22T20:08:20.331Z,16.33
2022-10-22T20:10:50.366Z,8.68
2022-10-22T20:13:18.406Z,11.05
2022-10-22T20:15:48.532Z,7.93
2022-10-22T20:18:15.754Z,11.93
2022-10-22T20:20:42.820Z,12.27
2022-10-22T20:23:10.051Z,8.50
2022-10-22T20:25:41.664Z,10.13
2022-10-22T20:28:09.051Z,9.68
2022-10-22T20:30:36.176Z,10.38
2022-10-22T20:33:03.264Z,8.63
2022-10-22T20:35:30.337Z,8.73
2022-10-22T20:37:57.488Z,7.82
2022-10-22T20:40:26.630Z,9.60
2022-10-22T20:42:53.899Z,10.48
2022-10-22T20:45:20.979Z,12.27
2022-10-22T20:47:51.557Z,11.77
2022-10-22T20:50:19.501Z,15.65
2022-10-22T20:52:46.546Z,8.45
2022-10-22T20:55:17.268Z,10.95
2022-10-22T20:57:44.653Z,11.82
2022-10-22T21:00:12.096Z,13.07
2022-10-22T21:02:39.204Z,7.47
2022-10-22T21:05:06.503Z,12.60
2022-10-22T21:07:33.609Z,7.68
2022-10-22T21:10:00.654Z,9.85
2022-10-22T21:12:27.748Z,18.08
2022-10-22T21:14:55.010Z,23.02
2022-10-22T21:17:22.107Z,19.77
2022-10-22T21:19:49.180Z,19.50
2022-10-22T21:22:16.305Z,15.43
2022-10-22T21:24:43.434Z,20.10
2022-10-22T21:27:10.510Z,17.63
2022-10-22T21:29:37.560Z,14.05
2022-10-22T21:32:04.729Z,21.48
2022-10-22T21:34:35.472Z,13.55
2022-10-22T21:37:05.838Z,15.80
2022-10-22T21:39:32.972Z,16.38
2022-10-22T21:42:00.106Z,16.30
2022-10-22T21:44:27.226Z,13.77
2022-10-22T21:46:54.383Z,14.07
2022-10-22T21:49:21.443Z,11.38
2022-10-22T21:51:48.551Z,8.43
2022-10-22T21:54:15.607Z,10.40
2022-10-22T21:56:42.747Z,10.85
2022-10-22T21:59:09.858Z,18.60
2022-10-22T22:01:37.041Z,12.68
2022-10-22T22:04:04.258Z,13.98
2022-10-22T22:06:33.321Z,11.25
2022-10-22T22:09:01.132Z,9.02
2022-10-22T22:11:28.994Z,8.27
2022-10-22T22:13:57.171Z,8.27
2022-10-22T22:16:28.966Z,5.20
2022-10-22T22:18:57.505Z,6.80
2022-10-22T22:21:24.724Z,6.70
2022-10-22T22:23:51.899Z,7.25
2022-10-22T22:26:25.221Z,7.10
2022-10-22T22:28:55.832Z,6.85
2022-10-22T22:31:24.837Z,5.95
2022-10-22T22:33:52.703Z,6.93
2022-10-22T22:36:19.786Z,9.00
2022-10-22T22:38:46.907Z,6.80
2022-10-22T22:41:13.965Z,6.40
2022-10-22T22:43:41.070Z,6.03
2022-10-22T22:46:11.350Z,4.65
2022-10-22T22:48:38.617Z,6.78
2022-10-22T22:51:06.523Z,6.32
2022-10-22T22:53:34.282Z,8.18
2022-10-22T22:56:05.343Z,7.40
2022-10-22T22:58:32.474Z,7.90
2022-10-22T23:01:18.066Z,7.55
2022-10-22T23:03:46.555Z,5.20
2022-10-22T23:06:14.094Z,6.80
2022-10-22T23:08:41.265Z,8.40
2022-10-22T23:11:10.096Z,5.85
2022-10-22T23:13:37.647Z,8.98
2022-10-22T23:16:08.778Z,6.85
2022-10-22T23:18:36.028Z,5.57
2022-10-22T23:21:06.571Z,5.70
2022-10-22T23:23:36.780Z,3.80
2022-10-22T23:26:03.894Z,8.65
2022-10-22T23:28:31.121Z,4.85
2022-10-22T23:30:58.205Z,8.10
2022-10-22T23:33:25.279Z,4.05
2022-10-22T23:35:52.358Z,9.00
2022-10-22T23:38:19.461Z,4.25
2022-10-22T23:40:46.544Z,8.55
2022-10-22T23:43:13.640Z,9.70
2022-10-22T23:45:40.729Z,10.65
2022-10-22T23:48:07.777Z,7.13
2022-10-22T23:50:36.608Z,5.68
2022-10-22T23:53:03.703Z,9.73
2022-10-22T23:55:30.779Z,5.43
2022-10-22T23:57:57.856Z,5.35
